Time;durP1;ratioP1;P1;durP2;ratioP2;P2;SDS_P1;SDS_P2;PMS_P1;PMS_P2;Temp;Humidity;BMP_temperature;BMP_pressure;BME280_temperature;BME280_humidity;BME280_pressure;Samples;Min_cycle;Max_cycle;Signal;HPM_P1;HPM_P2
2023/08/13 00:01:12;;;;;;;9.20;8.20;;;24.30;58.10;;;;;;5053558;28;20206;-70
2023/08/13 00:03:38;;;;;;;8.83;7.93;;;24.20;58.00;;;;;;5054972;28;20191;-70
2023/08/13 00:06:03;;;;;;;8.70;7.27;;;24.30;58.00;;;;;;5053499;28;20498;-70
2023/08/13 00:08:29;;;;;;;8.80;7.30;;;24.20;58.00;;;;;;5055087;28;20183;-70
2023/08/13 00:10:55;;;;;;;7.73;6.87;;;24.30;58.00;;;;;;5054945;28;20203;-70
2023/08/13 00:13:20;;;;;;;8.80;7.30;;;24.30;58.00;;;;;;5054818;28;20167;-70
2023/08/13 00:15:46;;;;;;;8.27;6.80;;;24.20;58.00;;;;;;5054753;28;20632;-70
2023/08/13 00:18:11;;;;;;;9.00;8.10;;;24.30;58.00;;;;;;5053375;28;20175;-70
2023/08/13 00:20:37;;;;;;;8.20;7.37;;;24.20;58.00;;;;;;5054520;28;20222;-70
2023/08/13 00:23:03;;;;;;;8.23;6.90;;;24.30;58.00;;;;;;5053316;28;20183;-70
2023/08/13 00:25:28;;;;;;;7.27;6.30;;;24.30;58.00;;;;;;5054543;28;20551;-70
2023/08/13 00:27:54;;;;;;;6.70;6.10;;;24.30;58.00;;;;;;5054447;28;20674;-71
2023/08/13 00:30:19;;;;;;;7.20;6.50;;;24.30;58.00;;;;;;5054261;28;20207;-70
2023/08/13 00:32:45;;;;;;;7.07;6.40;;;24.30;58.00;;;;;;5053053;28;20182;-70
2023/08/13 00:35:11;;;;;;;7.27;6.23;;;24.20;57.90;;;;;;5053512;28;20179;-70
2023/08/13 00:37:36;;;;;;;7.13;6.40;;;24.20;57.90;;;;;;5054302;28;20221;-70
2023/08/13 00:40:04;;;;;;;7.30;6.60;;;24.20;57.90;;;;;;5054186;28;20668;-70
2023/08/13 00:42:29;;;;;;;8.03;6.37;;;24.30;58.00;;;;;;5054258;28;20175;-70
2023/08/13 00:44:55;;;;;;;6.97;6.20;;;24.30;58.00;;;;;;5054232;28;20405;-70
2023/08/13 00:47:21;;;;;;;6.97;6.27;;;24.20;57.90;;;;;;5054126;28;20171;-70
2023/08/13 00:49:49;;;;;;;7.47;6.77;;;24.30;58.00;;;;;;5053789;28;20258;-70
2023/08/13 00:52:15;;;;;;;8.10;6.67;;;24.20;57.90;;;;;;5054354;28;20167;-70
2023/08/13 00:54:40;;;;;;;7.77;6.97;;;24.20;57.90;;;;;;5053990;28;20481;-70
2023/08/13 00:57:06;;;;;;;7.47;6.70;;;24.30;57.90;;;;;;5053913;28;20182;-70
2023/08/13 00:59:33;;;;;;;8.33;6.30;;;24.30;58.00;;;;;;5052507;28;20203;-70
2023/08/13 01:01:59;;;;;;;8.07;6.30;;;24.20;57.90;;;;;;5053823;28;20413;-70
2023/08/13 01:04:25;;;;;;;8.50;6.90;;;24.20;57.90;;;;;;5052490;28;20479;-70
2023/08/13 01:07:02;;;;;;;8.10;7.30;;;24.20;57.90;;;;;;5053754;28;20496;-70
2023/08/13 01:09:48;;;;;;;7.67;6.93;;;24.30;57.90;;;;;;5053952;28;20317;-70
2023/08/13 01:12:34;;;;;;;6.83;6.13;;;24.20;57.90;;;;;;5053564;28;20453;-70
2023/08/13 01:15:28;;;;;;;7.33;6.60;;;24.20;57.80;;;;;;5053650;28;20398;-69
2023/08/13 01:17:56;;;;;;;8.23;6.03;;;24.20;57.80;;;;;;5053613;28;20459;-70
2023/08/13 01:20:32;;;;;;;6.77;6.07;;;24.20;57.90;;;;;;5053759;28;20445;-70
2023/08/13 01:22:58;;;;;;;8.70;7.33;;;24.20;57.90;;;;;;5053501;28;20412;-70
2023/08/13 01:25:28;;;;;;;8.47;6.30;;;24.20;57.90;;;;;;5053390;28;20417;-70
2023/08/13 01:28:03;;;;;;;6.40;5.80;;;24.20;57.90;;;;;;5053403;28;20262;-70
2023/08/13 01:31:01;;;;;;;7.90;6.50;;;24.20;58.40;;;;;;5053212;28;20463;-69
2023/08/13 01:33:34;;;;;;;7.57;6.77;;;24.20;57.80;;;;;;5053211;28;20417;-70
2023/08/13 01:36:02;;;;;;;6.63;5.93;;;24.20;57.90;;;;;;5053410;28;20416;-70
2023/08/13 01:38:30;;;;;;;6.20;5.60;;;24.20;57.90;;;;;;5053162;28;20770;-69
2023/08/13 01:41:04;;;;;;;5.97;5.47;;;24.20;57.80;;;;;;5053266;28;20439;-70
2023/08/13 01:43:30;;;;;;;6.37;5.77;;;24.20;57.80;;;;;;5053084;28;20827;-70
2023/08/13 01:45:57;;;;;;;5.97;5.43;;;24.20;57.80;;;;;;5052987;28;20504;-70
2023/08/13 01:48:23;;;;;;;6.57;5.70;;;24.20;57.80;;;;;;5052756;28;20249;-70
2023/08/13 01:50:49;;;;;;;6.47;5.70;;;24.20;57.80;;;;;;5052758;28;20465;-70
2023/08/13 01:53:14;;;;;;;6.50;5.83;;;24.20;57.80;;;;;;5052922;28;20175;-70
2023/08/13 01:55:40;;;;;;;7.57;6.60;;;24.20;57.80;;;;;;5053067;28;20167;-70
2023/08/13 01:58:07;;;;;;;7.40;6.70;;;24.20;57.80;;;;;;5052762;28;20662;-70
2023/08/13 02:00:33;;;;;;;6.63;6.03;;;24.20;58.10;;;;;;5052907;28;20612;-70
2023/08/13 02:02:58;;;;;;;7.00;5.80;;;24.20;57.80;;;;;;5052751;28;20422;-70
2023/08/13 02:05:24;;;;;;;6.97;5.80;;;24.20;57.80;;;;;;5052659;28;20561;-70
2023/08/13 02:07:50;;;;;;;7.03;6.33;;;24.20;57.70;;;;;;5052679;28;20174;-70
2023/08/13 02:10:15;;;;;;;6.03;5.53;;;24.20;57.70;;;;;;5052460;28;20277;-70
2023/08/13 02:12:41;;;;;;;6.43;5.70;;;24.20;57.80;;;;;;5052623;28;20171;-71
2023/08/13 02:15:07;;;;;;;7.93;6.73;;;24.20;57.70;;;;;;5052520;28;20175;-70
2023/08/13 02:17:32;;;;;;;6.83;6.13;;;24.20;57.70;;;;;;5052555;28;20185;-70
2023/08/13 02:19:58;;;;;;;6.20;5.43;;;24.20;57.70;;;;;;5052399;28;20214;-70
2023/08/13 02:22:24;;;;;;;6.50;5.70;;;24.20;57.70;;;;;;5052410;28;20197;-70
2023/08/13 02:24:49;;;;;;;6.70;6.10;;;24.20;57.70;;;;;;5052410;28;20254;-70
2023/08/13 02:27:15;;;;;;;5.87;5.33;;;24.20;57.70;;;;;;5052266;28;20547;-70
2023/08/13 02:29:40;;;;;;;6.30;5.70;;;24.20;57.70;;;;;;5052180;28;20194;-70
2023/08/13 02:32:06;;;;;;;6.93;6.00;;;24.20;57.70;;;;;;5052221;28;20254;-70
2023/08/13 02:34:35;;;;;;;6.00;4.80;;;24.20;57.70;;;;;;5052174;28;20261;-70
2023/08/13 02:37:01;;;;;;;7.57;6.80;;;24.20;57.70;;;;;;5052211;28;20171;-70
2023/08/13 02:39:26;;;;;;;5.83;5.27;;;24.20;57.70;;;;;;5050804;28;20491;-70
2023/08/13 02:41:52;;;;;;;6.63;6.03;;;24.20;57.70;;;;;;5052143;28;20187;-70
2023/08/13 02:44:18;;;;;;;6.30;5.47;;;24.20;57.70;;;;;;5052083;28;20262;-70
2023/08/13 02:46:43;;;;;;;6.10;5.50;;;24.20;57.70;;;;;;5052047;28;20175;-70
2023/08/13 02:49:09;;;;;;;8.93;6.37;;;24.20;57.70;;;;;;5051832;28;20190;-70
2023/08/13 02:51:34;;;;;;;5.37;4.87;;;24.20;57.70;;;;;;5050567;28;20584;-70
2023/08/13 02:54:00;;;;;;;9.30;5.87;;;24.20;57.70;;;;;;5050600;28;20179;-70
2023/08/13 02:56:25;;;;;;;5.93;5.37;;;24.20;57.70;;;;;;5052024;28;20182;-70
2023/08/13 02:58:51;;;;;;;7.40;5.13;;;24.20;57.70;;;;;;5051634;28;20667;-70
2023/08/13 03:01:17;;;;;;;5.80;5.20;;;24.20;57.70;;;;;;5051849;28;20213;-70
2023/08/13 03:03:42;;;;;;;6.37;5.77;;;24.20;57.70;;;;;;5051764;28;20182;-70
2023/08/13 03:06:08;;;;;;;5.60;5.00;;;24.20;57.70;;;;;;5051753;28;20187;-70
2023/08/13 03:08:33;;;;;;;6.43;5.83;;;24.20;57.70;;;;;;5051737;28;20182;-71
2023/08/13 03:10:59;;;;;;;5.50;5.00;;;24.20;57.70;;;;;;5051613;28;20206;-70
2023/08/13 03:13:24;;;;;;;6.20;5.43;;;24.20;57.70;;;;;;5050378;28;20175;-70
2023/08/13 03:15:50;;;;;;;5.80;5.00;;;24.20;58.20;;;;;;5050434;28;20667;-70
2023/08/13 03:18:16;;;;;;;6.30;5.80;;;24.20;57.60;;;;;;5051660;28;20167;-70
2023/08/13 03:20:41;;;;;;;6.20;5.60;;;24.20;57.60;;;;;;5051636;28;20203;-70
2023/08/13 03:23:07;;;;;;;6.93;5.97;;;24.20;57.60;;;;;;5051887;28;20229;-70
2023/08/13 03:25:32;;;;;;;5.93;5.33;;;24.20;57.60;;;;;;5051614;28;20175;-69
2023/08/13 03:27:58;;;;;;;6.10;5.50;;;24.20;57.60;;;;;;5051888;28;20178;-70
2023/08/13 03:30:23;;;;;;;5.80;5.30;;;24.20;57.60;;;;;;5051358;28;20205;-70
2023/08/13 03:32:49;;;;;;;6.77;5.43;;;24.20;58.20;;;;;;5051516;28;20582;-70
2023/08/13 03:35:15;;;;;;;6.10;5.37;;;24.20;57.60;;;;;;5051493;28;20175;-69
2023/08/13 03:37:40;;;;;;;6.13;5.53;;;24.20;57.60;;;;;;5051782;28;20597;-70
2023/08/13 03:40:06;;;;;;;5.30;4.70;;;24.20;57.60;;;;;;5050113;28;20592;-70
2023/08/13 03:42:32;;;;;;;4.80;4.30;;;24.20;57.60;;;;;;5051441;28;20179;-70
2023/08/13 03:44:59;;;;;;;5.63;5.03;;;24.20;57.60;;;;;;5051370;28;20470;-70
2023/08/13 03:47:24;;;;;;;5.70;5.00;;;24.20;57.60;;;;;;5050061;28;20182;-70
2023/08/13 03:49:50;;;;;;;5.10;4.60;;;24.20;58.20;;;;;;5051048;28;20461;-70
2023/08/13 03:52:16;;;;;;;6.03;5.30;;;24.20;57.60;;;;;;5051302;28;20175;-71
2023/08/13 03:54:41;;;;;;;5.50;5.00;;;24.20;57.60;;;;;;5051330;28;20186;-70
2023/08/13 03:57:07;;;;;;;5.93;5.40;;;24.20;57.60;;;;;;5051313;28;20171;-71
2023/08/13 03:59:32;;;;;;;4.93;4.50;;;24.20;57.70;;;;;;5051183;28;20745;-70
2023/08/13 04:01:58;;;;;;;6.50;5.10;;;24.20;57.60;;;;;;5051215;28;20211;-71
2023/08/13 04:04:24;;;;;;;5.50;5.00;;;24.20;57.60;;;;;;5051265;28;20175;-70
2023/08/13 04:06:50;;;;;;;5.40;4.90;;;24.20;57.60;;;;;;5051248;28;20401;-70
2023/08/13 04:09:15;;;;;;;5.77;5.27;;;24.20;57.60;;;;;;5052164;28;20413;-71
2023/08/13 04:11:41;;;;;;;5.30;4.37;;;24.20;57.60;;;;;;5054762;28;20732;-70
2023/08/13 04:14:07;;;;;;;5.17;4.43;;;24.20;57.60;;;;;;5054760;28;20631;-69
2023/08/13 04:16:32;;;;;;;5.70;5.10;;;24.20;57.60;;;;;;5055045;28;20201;-70
2023/08/13 04:18:58;;;;;;;4.50;4.10;;;24.20;57.60;;;;;;5054895;28;20265;-68
2023/08/13 04:21:27;;;;;;;5.77;5.03;;;24.20;57.60;;;;;;5054570;28;20199;-70
2023/08/13 04:23:56;;;;;;;5.40;4.90;;;24.20;57.60;;;;;;5054660;28;20206;-70
2023/08/13 04:26:25;;;;;;;5.70;5.10;;;24.20;57.60;;;;;;5054294;28;20454;-70
2023/08/13 04:28:51;;;;;;;4.90;4.40;;;24.20;57.60;;;;;;5054510;28;20440;-70
2023/08/13 04:31:18;;;;;;;6.17;5.50;;;24.20;57.60;;;;;;5054637;28;20441;-70
2023/08/13 04:33:43;;;;;;;4.80;4.30;;;24.20;57.60;;;;;;5054403;28;20248;-70
2023/08/13 04:36:09;;;;;;;4.87;4.37;;;24.20;57.60;;;;;;5054372;28;20405;-70
2023/08/13 04:38:34;;;;;;;5.50;5.00;;;24.20;57.60;;;;;;5054370;28;20529;-70
2023/08/13 04:41:02;;;;;;;3.47;3.13;;;24.20;57.50;;;;;;5054267;28;20191;-70
2023/08/13 04:43:27;;;;;;;4.87;4.33;;;24.20;57.50;;;;;;5054238;28;20201;-70
2023/08/13 04:45:53;;;;;;;5.50;4.90;;;24.20;57.50;;;;;;5054115;28;20508;-70
2023/08/13 04:48:47;;;;;;;4.90;4.50;;;24.20;57.50;;;;;;5053980;28;20320;-70
2023/08/13 04:51:15;;;;;;;6.07;5.40;;;24.20;57.50;;;;;;5053702;28;20199;-70
2023/08/13 04:53:41;;;;;;;4.53;4.10;;;24.20;57.50;;;;;;5054049;28;20452;-71
2023/08/13 04:56:07;;;;;;;5.43;4.83;;;24.20;57.50;;;;;;5053966;28;20500;-70
2023/08/13 04:58:34;;;;;;;5.27;4.77;;;24.20;57.50;;;;;;5053856;28;20568;-72
2023/08/13 05:01:00;;;;;;;6.20;5.00;;;24.20;58.10;;;;;;5053748;28;20199;-73
2023/08/13 05:03:25;;;;;;;5.83;5.03;;;24.20;57.70;;;;;;5053764;28;20493;-73
2023/08/13 05:05:52;;;;;;;5.73;5.10;;;24.20;57.70;;;;;;5053568;28;20901;-72
2023/08/13 05:08:17;;;;;;;4.83;4.43;;;24.20;57.70;;;;;;5053646;28;20565;-72
2023/08/13 05:10:43;;;;;;;10.40;4.90;;;24.20;57.70;;;;;;5053492;28;20460;-73
2023/08/13 05:13:08;;;;;;;6.97;5.67;;;24.20;57.70;;;;;;5053577;28;20249;-73
2023/08/13 05:15:34;;;;;;;10.53;5.13;;;24.20;57.70;;;;;;5053870;28;20175;-73
2023/08/13 05:18:00;;;;;;;5.17;4.50;;;24.20;57.70;;;;;;5053592;28;20175;-73
2023/08/13 05:20:25;;;;;;;8.27;4.43;;;24.20;57.70;;;;;;5053091;28;20289;-72
2023/08/13 05:22:51;;;;;;;6.47;5.50;;;24.20;57.70;;;;;;5053819;28;20182;-73
2023/08/13 05:25:17;;;;;;;6.03;5.43;;;24.20;57.70;;;;;;5052408;28;20695;-73
2023/08/13 05:27:42;;;;;;;5.50;5.00;;;24.20;57.80;;;;;;5053382;28;20186;-73
2023/08/13 05:30:08;;;;;;;5.57;4.97;;;24.20;57.90;;;;;;5053273;28;20261;-73
2023/08/13 05:32:34;;;;;;;6.43;5.20;;;24.20;58.00;;;;;;5053629;28;20179;-72
2023/08/13 05:35:00;;;;;;;6.63;5.30;;;24.30;58.10;;;;;;5053343;28;20788;-73
2023/08/13 05:37:25;;;;;;;5.00;4.50;;;24.30;58.20;;;;;;5053564;28;20632;-73
2023/08/13 05:39:52;;;;;;;5.27;4.77;;;24.20;58.10;;;;;;5053131;28;20214;-73
2023/08/13 05:42:18;;;;;;;6.13;5.17;;;24.20;58.10;;;;;;5051934;28;20338;-72
2023/08/13 05:44:44;;;;;;;5.80;5.20;;;24.30;58.30;;;;;;5053145;28;20409;-73
2023/08/13 05:47:10;;;;;;;5.47;4.63;;;24.30;58.30;;;;;;5053094;28;20781;-74
2023/08/13 05:49:35;;;;;;;7.53;4.80;;;24.30;58.40;;;;;;5052634;28;20221;-74
2023/08/13 05:52:01;;;;;;;5.43;4.60;;;24.30;58.40;;;;;;5052898;28;20179;-73
2023/08/13 05:54:26;;;;;;;5.47;5.00;;;24.30;58.50;;;;;;5052914;28;20253;-73
2023/08/13 05:56:52;;;;;;;5.77;4.70;;;24.30;58.50;;;;;;5052849;28;20171;-73
2023/08/13 05:59:18;;;;;;;4.87;4.37;;;24.30;58.50;;;;;;5052755;28;20206;-73
2023/08/13 06:01:43;;;;;;;6.10;5.37;;;24.30;58.50;;;;;;5053043;28;20171;-73
2023/08/13 06:04:09;;;;;;;5.20;4.70;;;24.30;58.60;;;;;;5052728;28;20178;-73
2023/08/13 06:06:34;;;;;;;5.20;4.70;;;24.30;58.60;;;;;;5052425;28;20246;-73
2023/08/13 06:09:00;;;;;;;5.77;5.27;;;24.30;58.60;;;;;;5052645;28;20638;-73
2023/08/13 06:11:26;;;;;;;4.80;4.17;;;24.30;58.70;;;;;;5052379;28;20245;-73
2023/08/13 06:13:51;;;;;;;6.17;5.03;;;24.30;58.70;;;;;;5048908;28;20595;-73
2023/08/13 06:16:17;;;;;;;5.30;4.80;;;24.30;58.70;;;;;;5046999;28;20202;-73
2023/08/13 06:18:42;;;;;;;5.60;4.60;;;24.30;58.70;;;;;;5052257;28;20171;-71
2023/08/13 06:21:08;;;;;;;8.10;5.60;;;24.30;58.70;;;;;;5050482;28;20210;-73
2023/08/13 06:23:34;;;;;;;4.73;4.07;;;24.30;58.80;;;;;;5042394;28;20206;-73
2023/08/13 06:25:59;;;;;;;5.47;4.50;;;24.30;58.80;;;;;;5033090;28;20657;-73
2023/08/13 06:28:25;;;;;;;4.90;4.40;;;24.30;58.80;;;;;;5041336;28;20194;-73
2023/08/13 06:30:51;;;;;;;5.23;4.30;;;24.30;58.70;;;;;;5041464;28;20219;-73
2023/08/13 06:33:16;;;;;;;4.50;4.10;;;24.30;58.80;;;;;;5039172;28;20181;-73
2023/08/13 06:35:46;;;;;;;4.67;4.27;;;24.40;58.90;;;;;;5041412;28;20174;-73
2023/08/13 06:38:13;;;;;;;5.33;4.83;;;24.30;58.90;;;;;;5043597;28;20688;-71
2023/08/13 06:40:38;;;;;;;4.90;4.50;;;24.40;58.90;;;;;;5040846;28;20429;-73
2023/08/13 06:43:04;;;;;;;5.27;4.77;;;24.40;58.90;;;;;;5042641;28;20471;-73
2023/08/13 06:45:30;;;;;;;5.20;4.67;;;24.40;59.00;;;;;;5041268;28;20176;-73
2023/08/13 06:47:57;;;;;;;4.17;3.77;;;24.30;59.00;;;;;;5035719;28;20206;-73
2023/08/13 06:50:23;;;;;;;4.63;4.20;;;24.30;59.00;;;;;;5041227;28;20195;-72
2023/08/13 06:52:50;;;;;;;4.60;4.20;;;24.40;59.10;;;;;;5042476;28;20965;-73
2023/08/13 06:55:15;;;;;;;5.30;4.10;;;24.40;59.10;;;;;;5041540;28;20434;-73
2023/08/13 06:57:41;;;;;;;5.73;4.40;;;24.40;59.20;;;;;;5042321;28;20620;-73
2023/08/13 07:00:07;;;;;;;5.27;3.90;;;24.40;59.20;;;;;;5041461;28;20206;-72
2023/08/13 07:02:32;;;;;;;4.10;3.80;;;24.40;59.20;;;;;;5040557;28;20184;-73
2023/08/13 07:04:58;;;;;;;4.67;4.20;;;24.40;59.20;;;;;;5041683;28;20413;-73
2023/08/13 07:07:23;;;;;;;4.27;3.87;;;24.40;59.30;;;;;;5042179;28;20182;-73
2023/08/13 07:09:49;;;;;;;4.60;4.20;;;24.40;59.30;;;;;;5040231;28;20221;-73
2023/08/13 07:12:15;;;;;;;5.50;4.63;;;24.40;59.40;;;;;;5042285;28;20183;-72
2023/08/13 07:14:40;;;;;;;5.03;4.00;;;24.40;59.40;;;;;;5037377;28;20186;-73
2023/08/13 07:17:06;;;;;;;4.40;3.80;;;24.40;59.30;;;;;;5031972;28;20182;-72
2023/08/13 07:19:35;;;;;;;5.83;4.10;;;24.40;59.30;;;;;;5031661;28;20226;-72
2023/08/13 07:22:03;;;;;;;4.43;3.80;;;24.40;59.40;;;;;;5030305;28;20175;-72
2023/08/13 07:24:32;;;;;;;5.87;4.20;;;24.40;59.40;;;;;;5030808;28;20955;-72
2023/08/13 07:26:58;;;;;;;4.60;4.07;;;24.40;59.40;;;;;;5031726;28;20418;-72
2023/08/13 07:29:26;;;;;;;4.57;4.07;;;24.40;59.40;;;;;;5031958;28;20469;-72
2023/08/13 07:31:51;;;;;;;6.23;4.07;;;24.40;59.40;;;;;;5031627;28;20200;-72
2023/08/13 07:34:19;;;;;;;4.57;4.00;;;24.40;59.50;;;;;;5031641;28;21034;-73
2023/08/13 07:36:45;;;;;;;6.97;4.03;;;24.40;59.50;;;;;;5030375;28;20180;-72
2023/08/13 07:39:10;;;;;;;5.83;4.33;;;24.40;59.60;;;;;;5031796;28;20425;-72
2023/08/13 07:41:36;;;;;;;5.67;4.37;;;24.40;59.60;;;;;;5031905;28;20251;-72
2023/08/13 07:44:02;;;;;;;4.83;4.30;;;24.40;59.60;;;;;;5034008;28;20778;-72
2023/08/13 07:46:30;;;;;;;5.90;4.53;;;24.40;59.60;;;;;;5035975;28;20183;-72
2023/08/13 07:48:55;;;;;;;5.57;4.50;;;24.50;59.70;;;;;;5035425;28;20187;-72
2023/08/13 07:51:21;;;;;;;5.00;4.50;;;24.40;59.60;;;;;;5035112;28;20462;-72
2023/08/13 07:53:47;;;;;;;4.70;4.20;;;24.50;59.60;;;;;;5035755;28;20541;-73
2023/08/13 07:56:15;;;;;;;4.63;4.07;;;24.50;59.70;;;;;;5034017;28;20225;-73
2023/08/13 07:58:40;;;;;;;8.53;5.70;;;24.50;59.70;;;;;;5035616;28;20644;-73
2023/08/13 08:01:06;;;;;;;4.37;3.97;;;24.50;59.60;;;;;;5035508;28;20441;-73
2023/08/13 08:03:32;;;;;;;10.57;5.70;;;24.50;60.20;;;;;;5035340;28;20230;-73
2023/08/13 08:05:58;;;;;;;5.30;4.60;;;24.50;59.60;;;;;;5035351;28;20203;-71
2023/08/13 08:08:23;;;;;;;7.00;4.93;;;24.50;59.70;;;;;;5033834;28;20855;-73
2023/08/13 08:10:49;;;;;;;7.37;4.73;;;24.50;59.70;;;;;;5154362;23;20753;-72
2023/08/13 08:14:36;;;;;;;;;;;;;;;;;;;;;
2023/08/13 08:21:22;;;;;;;5.50;4.50;;;24.50;59.70;;;;;;4897362;29;20524;-73
2023/08/13 08:23:47;;;;;;;7.00;5.00;;;24.50;59.80;;;;;;4885249;28;20792;-73
2023/08/13 08:26:13;;;;;;;5.10;4.07;;;24.50;59.80;;;;;;4973935;28;20419;-74
2023/08/13 08:28:38;;;;;;;5.33;4.40;;;24.50;59.80;;;;;;4973519;28;20205;-73
2023/08/13 08:31:04;;;;;;;6.70;4.53;;;24.50;59.70;;;;;;5047302;22;20309;-73
2023/08/13 08:33:30;;;;;;;5.07;4.13;;;24.50;59.80;;;;;;5034685;28;20637;-72
2023/08/13 08:35:55;;;;;;;6.90;4.70;;;24.50;59.70;;;;;;5034979;28;20175;-73
2023/08/13 08:38:21;;;;;;;6.40;4.53;;;24.50;59.80;;;;;;5034616;28;20172;-73
2023/08/13 08:40:48;;;;;;;7.60;5.17;;;24.50;59.80;;;;;;5107540;23;20315;-73
2023/08/13 08:43:16;;;;;;;5.33;4.40;;;24.50;59.80;;;;;;5034271;28;20254;-72
2023/08/13 08:45:43;;;;;;;7.13;4.07;;;24.60;59.80;;;;;;5033109;28;20410;-73
2023/08/13 08:48:11;;;;;;;6.07;4.60;;;24.50;59.80;;;;;;5034245;28;20507;-72
2023/08/13 08:53:08;;;;;;;5.10;4.10;;;24.50;60.40;;;;;;5050647;28;20469;-72
2023/08/13 08:55:34;;;;;;;7.77;4.87;;;24.50;59.80;;;;;;5047072;28;20483;-73
2023/08/13 08:58:00;;;;;;;5.53;4.10;;;24.50;59.80;;;;;;5053691;28;20401;-74
2023/08/13 09:00:25;;;;;;;6.97;5.30;;;24.50;59.80;;;;;;5054678;28;20422;-74
2023/08/13 09:02:51;;;;;;;5.93;4.87;;;24.60;60.50;;;;;;5053729;28;20175;-73
2023/08/13 09:05:16;;;;;;;5.77;4.87;;;24.60;59.80;;;;;;5053300;28;20174;-74
2023/08/13 09:07:42;;;;;;;5.83;3.90;;;24.60;59.80;;;;;;5052336;28;20182;-74
2023/08/13 09:10:09;;;;;;;6.33;4.03;;;24.60;59.80;;;;;;5053572;28;20199;-73
2023/08/13 09:12:40;;;;;;;6.03;4.20;;;24.60;59.80;;;;;;5053996;28;20420;-73
2023/08/13 09:15:11;;;;;;;9.73;4.67;;;24.60;60.40;;;;;;5053892;28;20463;-73
2023/08/13 09:17:38;;;;;;;6.70;4.67;;;24.60;59.70;;;;;;5036197;28;20508;-73
2023/08/13 09:20:20;;;;;;;7.17;4.60;;;24.60;59.60;;;;;;5053658;28;20834;-73
2023/08/13 09:22:50;;;;;;;6.53;4.30;;;24.60;59.60;;;;;;5053716;28;20402;-73
2023/08/13 09:25:16;;;;;;;5.10;4.37;;;24.60;59.70;;;;;;5054157;28;20803;-72
2023/08/13 09:27:42;;;;;;;7.57;4.13;;;24.60;59.60;;;;;;5053963;28;20496;-73
2023/08/13 09:30:18;;;;;;;5.90;3.93;;;24.60;59.60;;;;;;5075771;22;20581;-72
2023/08/13 09:32:45;;;;;;;9.17;4.90;;;24.60;59.60;;;;;;5034023;28;20390;-73
2023/08/13 09:35:11;;;;;;;6.20;4.57;;;24.60;59.50;;;;;;5033701;28;20825;-73
2023/08/13 09:37:37;;;;;;;5.10;4.00;;;24.60;59.50;;;;;;5033752;28;20394;-73
2023/08/13 09:40:03;;;;;;;5.43;4.47;;;24.60;59.50;;;;;;5033258;28;20750;-73
2023/08/13 09:42:31;;;;;;;7.67;5.23;;;24.60;59.50;;;;;;5033202;28;20548;-73
2023/08/13 09:44:58;;;;;;;5.17;4.23;;;24.60;59.40;;;;;;5033276;28;20200;-73
2023/08/13 09:47:26;;;;;;;5.83;4.10;;;24.60;59.50;;;;;;5033221;28;20402;-73
2023/08/13 09:49:55;;;;;;;8.63;5.30;;;24.60;59.40;;;;;;5032820;28;20429;-73
2023/08/13 09:52:25;;;;;;;7.20;4.97;;;24.70;59.60;;;;;;5032999;28;20817;-72
2023/08/13 09:55:03;;;;;;;5.70;4.03;;;24.60;59.50;;;;;;5032974;28;20406;-73
2023/08/13 09:57:32;;;;;;;7.37;4.23;;;24.60;59.60;;;;;;5033203;28;20771;-73
2023/08/13 09:59:58;;;;;;;9.33;4.50;;;24.70;59.60;;;;;;5033020;28;20919;-73
2023/08/13 10:02:24;;;;;;;7.53;4.23;;;24.60;59.50;;;;;;5032826;28;20402;-73
2023/08/13 10:04:51;;;;;;;5.50;4.00;;;24.60;59.60;;;;;;5032782;28;20196;-73
2023/08/13 10:07:19;;;;;;;5.57;4.40;;;24.60;59.60;;;;;;5014021;28;20418;-73
2023/08/13 10:09:45;;;;;;;6.90;4.90;;;24.60;59.50;;;;;;5032637;28;20430;-72
2023/08/13 10:12:11;;;;;;;6.83;4.73;;;24.70;59.60;;;;;;5032623;28;20758;-73
2023/08/13 10:14:37;;;;;;;5.53;4.10;;;24.60;59.50;;;;;;5032648;28;20170;-73
2023/08/13 10:17:05;;;;;;;8.57;4.60;;;24.60;59.40;;;;;;5032829;28;20415;-73
2023/08/13 10:19:34;;;;;;;5.07;4.30;;;24.70;59.60;;;;;;5032519;28;20192;-73
2023/08/13 10:21:59;;;;;;;8.17;4.80;;;24.70;59.50;;;;;;5032562;28;20417;-72
2023/08/13 10:24:29;;;;;;;6.07;4.80;;;24.70;59.50;;;;;;5032513;28;20490;-73
2023/08/13 10:26:55;;;;;;;6.77;4.70;;;24.70;59.40;;;;;;5032459;28;20199;-73
2023/08/13 10:29:21;;;;;;;5.80;4.20;;;24.70;59.90;;;;;;5014543;28;20442;-72
2023/08/13 10:32:01;;;;;;;5.80;4.50;;;24.70;59.30;;;;;;5032331;28;20199;-73
2023/08/13 10:34:50;;;;;;;5.97;4.00;;;24.70;59.40;;;;;;5032375;28;20428;-72
2023/08/13 10:37:20;;;;;;;5.90;4.53;;;24.70;59.40;;;;;;5032333;28;20477;-73
2023/08/13 10:39:47;;;;;;;5.67;3.67;;;24.70;59.30;;;;;;5032100;28;20446;-73
2023/08/13 10:42:34;;;;;;;5.33;4.23;;;24.70;59.30;;;;;;5014391;28;20505;-73
2023/08/13 10:45:07;;;;;;;4.90;4.40;;;24.70;59.40;;;;;;5032465;28;20465;-72
2023/08/13 10:47:39;;;;;;;4.70;3.70;;;24.70;59.40;;;;;;5014383;28;20417;-73
2023/08/13 10:50:28;;;;;;;4.90;3.70;;;24.70;59.40;;;;;;5014131;28;20938;-73
2023/08/13 10:53:11;;;;;;;6.60;4.00;;;24.70;59.40;;;;;;5032116;28;20478;-73
2023/08/13 10:55:43;;;;;;;4.57;3.80;;;24.70;59.30;;;;;;5014370;28;20436;-73
2023/08/13 10:58:22;;;;;;;7.37;3.87;;;24.70;59.40;;;;;;5032146;28;20993;-72
2023/08/13 11:00:47;;;;;;;6.07;4.93;;;24.70;59.40;;;;;;5031888;28;20441;-73
2023/08/13 11:03:21;;;;;;;4.57;3.27;;;24.70;59.30;;;;;;5014099;28;20780;-73
2023/08/13 11:05:48;;;;;;;6.00;4.03;;;24.70;59.40;;;;;;5031919;28;20224;-72
2023/08/13 11:08:17;;;;;;;3.93;3.40;;;24.70;59.30;;;;;;5032146;28;20418;-71
2023/08/13 11:10:46;;;;;;;5.70;3.60;;;24.70;59.30;;;;;;5031608;28;20465;-73
2023/08/13 11:13:12;;;;;;;6.23;3.70;;;24.70;59.30;;;;;;5014111;28;20936;-73
2023/08/13 11:15:38;;;;;;;7.20;4.87;;;24.70;59.30;;;;;;5031742;28;20418;-73
2023/08/13 11:18:04;;;;;;;6.47;4.40;;;24.70;59.30;;;;;;5014696;28;20426;-73
2023/08/13 11:20:30;;;;;;;5.03;3.63;;;24.70;59.20;;;;;;5017954;28;20537;-72
2023/08/13 11:22:55;;;;;;;3.70;3.30;;;24.70;59.30;;;;;;5035782;28;20645;-73
2023/08/13 11:25:21;;;;;;;5.10;3.33;;;24.70;59.30;;;;;;5035786;28;20237;-73
2023/08/13 11:27:46;;;;;;;6.30;4.10;;;24.70;59.30;;;;;;5035730;28;20183;-74
2023/08/13 11:30:12;;;;;;;6.03;4.40;;;24.70;59.20;;;;;;5035478;28;20211;-73
2023/08/13 11:32:38;;;;;;;5.63;4.13;;;24.70;59.30;;;;;;5017866;28;20175;-73
2023/08/13 11:35:06;;;;;;;6.30;4.13;;;24.70;59.20;;;;;;5035607;28;20410;-73
2023/08/13 11:37:33;;;;;;;5.10;3.43;;;24.70;59.20;;;;;;5035597;28;20793;-73
2023/08/13 11:39:58;;;;;;;4.60;3.60;;;24.70;59.30;;;;;;5035658;28;20438;-73
2023/08/13 11:42:24;;;;;;;5.03;3.37;;;24.70;59.20;;;;;;5035472;28;20421;-73
2023/08/13 11:44:49;;;;;;;6.17;4.17;;;24.80;59.30;;;;;;5035420;28;20218;-73
2023/08/13 11:47:24;;;;;;;5.00;3.83;;;24.70;59.20;;;;;;5035421;28;20185;-72
2023/08/13 11:49:50;;;;;;;3.53;3.23;;;24.80;59.30;;;;;;5035221;28;20195;-72
2023/08/13 11:52:18;;;;;;;6.17;4.07;;;24.80;59.20;;;;;;5035279;28;20827;-72
2023/08/13 11:54:44;;;;;;;5.77;3.50;;;24.80;59.20;;;;;;5035251;28;20246;-73
2023/08/13 11:57:10;;;;;;;6.10;3.50;;;24.80;59.20;;;;;;5035439;28;20410;-72
2023/08/13 11:59:37;;;;;;;4.53;3.37;;;24.80;59.20;;;;;;5035128;28;20474;-72
2023/08/13 12:02:02;;;;;;;5.20;3.53;;;24.80;59.10;;;;;;5035400;28;20406;-73
2023/08/13 12:04:32;;;;;;;5.17;3.60;;;24.80;59.10;;;;;;5035083;28;20426;-74
2023/08/13 12:06:58;;;;;;;4.00;3.60;;;24.80;59.10;;;;;;5017477;28;20198;-74
2023/08/13 12:09:24;;;;;;;4.93;3.80;;;24.80;59.10;;;;;;5034989;28;20490;-73
2023/08/13 12:11:53;;;;;;;4.40;3.40;;;24.80;59.10;;;;;;5035104;28;20832;-73
2023/08/13 12:14:18;;;;;;;3.93;3.40;;;24.80;59.20;;;;;;5034897;28;20671;-74
2023/08/13 12:16:44;;;;;;;3.47;2.80;;;24.80;59.10;;;;;;5035170;28;20410;-74
2023/08/13 12:19:09;;;;;;;4.23;3.30;;;24.80;59.10;;;;;;5016980;28;20171;-73
2023/08/13 12:21:36;;;;;;;5.37;3.50;;;24.80;59.10;;;;;;5034087;28;20234;-74
2023/08/13 12:24:04;;;;;;;4.70;3.33;;;24.80;59.10;;;;;;5034740;28;20231;-73
2023/08/13 12:26:30;;;;;;;4.30;3.53;;;24.80;59.10;;;;;;5033653;28;20425;-73
2023/08/13 12:28:56;;;;;;;4.40;3.13;;;24.80;59.60;;;;;;5034654;28;20413;-73
2023/08/13 12:31:22;;;;;;;8.20;3.73;;;24.80;59.00;;;;;;5031998;28;20465;-72
2023/08/13 12:33:48;;;;;;;4.63;3.30;;;24.80;59.00;;;;;;5016742;28;20720;-72
2023/08/13 12:36:13;;;;;;;5.53;3.33;;;24.80;59.00;;;;;;5035045;28;20501;-72
2023/08/13 12:38:40;;;;;;;4.77;3.10;;;24.80;59.00;;;;;;5016565;28;20680;-73
2023/08/13 12:41:06;;;;;;;3.63;3.30;;;24.80;59.00;;;;;;5034388;28;20195;-73
2023/08/13 12:43:36;;;;;;;4.57;3.83;;;24.80;59.10;;;;;;5034025;28;20923;-73
2023/08/13 12:46:03;;;;;;;4.57;3.47;;;24.80;59.00;;;;;;5031912;28;20476;-73
2023/08/13 12:48:28;;;;;;;4.10;3.27;;;24.80;59.00;;;;;;5034460;28;20422;-73
2023/08/13 12:50:54;;;;;;;4.83;3.30;;;24.80;59.10;;;;;;5034498;28;20462;-73
2023/08/13 12:53:20;;;;;;;4.30;3.30;;;24.80;59.10;;;;;;5034388;28;20224;-72
2023/08/13 12:55:46;;;;;;;4.03;3.10;;;24.80;59.10;;;;;;5034209;28;20226;-73